sensor_id;sensor_type;location;lat;lon;timestamp;P1;durP1;ratioP1;P2;durP2;ratioP2
30185;SDS011;31152;49.190;8.122;2022-09-03T00:02:06;8.32;;;1.40;;
30185;SDS011;31152;49.190;8.122;2022-09-03T00:05:42;2.47;;;1.30;;
30185;SDS011;31152;49.190;8.122;2022-09-03T00:10:21;5.18;;;1.92;;
30185;SDS011;31152;49.190;8.122;2022-09-03T00:13:19;4.63;;;1.50;;
30185;SDS011;31152;49.190;8.122;2022-09-03T00:15:50;4.85;;;1.30;;
30185;SDS011;31152;49.190;8.122;2022-09-03T00:18:20;4.22;;;1.65;;
30185;SDS011;31152;49.190;8.122;2022-09-03T00:20:54;2.72;;;1.30;;
30185;SDS011;31152;49.190;8.122;2022-09-03T00:23:35;1.98;;;1.40;;
30185;SDS011;31152;49.190;8.122;2022-09-03T00:28:40;1.90;;;1.20;;
30185;SDS011;31152;49.190;8.122;2022-09-03T00:34:03;6.88;;;1.30;;
30185;SDS011;31152;49.190;8.122;2022-09-03T00:36:40;3.03;;;1.30;;
30185;SDS011;31152;49.190;8.122;2022-09-03T00:39:10;2.60;;;1.13;;
30185;SDS011;31152;49.190;8.122;2022-09-03T00:41:56;2.78;;;1.25;;
30185;SDS011;31152;49.190;8.122;2022-09-03T00:47:19;2.97;;;1.42;;
30185;SDS011;31152;49.190;8.122;2022-09-03T00:50:02;5.05;;;1.38;;
30185;SDS011;31152;49.190;8.122;2022-09-03T00:52:46;3.85;;;1.30;;
30185;SDS011;31152;49.190;8.122;2022-09-03T01:07:00;2.10;;;1.38;;
30185;SDS011;31152;49.190;8.122;2022-09-03T01:12:29;5.07;;;1.13;;
30185;SDS011;31152;49.190;8.122;2022-09-03T01:15:11;2.38;;;1.08;;
30185;SDS011;31152;49.190;8.122;2022-09-03T01:18:23;4.75;;;1.30;;
30185;SDS011;31152;49.190;8.122;2022-09-03T01:32:09;6.82;;;1.60;;
30185;SDS011;31152;49.190;8.122;2022-09-03T02:00:04;2.55;;;1.30;;
30185;SDS011;31152;49.190;8.122;2022-09-03T02:02:35;6.60;;;1.20;;
30185;SDS011;31152;49.190;8.122;2022-09-03T02:05:03;3.60;;;1.40;;
30185;SDS011;31152;49.190;8.122;2022-09-03T02:07:44;4.18;;;1.40;;
30185;SDS011;31152;49.190;8.122;2022-09-03T02:10:44;3.92;;;1.33;;
30185;SDS011;31152;49.190;8.122;2022-09-03T02:13:14;3.70;;;1.40;;
30185;SDS011;31152;49.190;8.122;2022-09-03T02:15:45;3.20;;;1.10;;
30185;SDS011;31152;49.190;8.122;2022-09-03T02:18:15;5.30;;;1.50;;
30185;SDS011;31152;49.190;8.122;2022-09-03T02:20:44;6.70;;;1.80;;
30185;SDS011;31152;49.190;8.122;2022-09-03T02:23:15;5.68;;;1.73;;
30185;SDS011;31152;49.190;8.122;2022-09-03T02:25:43;2.92;;;1.40;;
30185;SDS011;31152;49.190;8.122;2022-09-03T02:28:18;2.72;;;1.25;;
30185;SDS011;31152;49.190;8.122;2022-09-03T02:30:48;1.85;;;1.10;;
30185;SDS011;31152;49.190;8.122;2022-09-03T02:33:15;5.18;;;1.40;;
30185;SDS011;31152;49.190;8.122;2022-09-03T02:35:42;2.30;;;1.08;;
30185;SDS011;31152;49.190;8.122;2022-09-03T02:38:14;3.70;;;1.30;;
30185;SDS011;31152;49.190;8.122;2022-09-03T02:40:46;3.75;;;1.20;;
30185;SDS011;31152;49.190;8.122;2022-09-03T02:43:15;3.58;;;1.48;;
30185;SDS011;31152;49.190;8.122;2022-09-03T02:45:51;4.97;;;1.08;;
30185;SDS011;31152;49.190;8.122;2022-09-03T02:48:24;5.60;;;1.55;;
30185;SDS011;31152;49.190;8.122;2022-09-03T02:50:51;3.63;;;1.30;;
30185;SDS011;31152;49.190;8.122;2022-09-03T02:53:18;3.47;;;1.42;;
30185;SDS011;31152;49.190;8.122;2022-09-03T02:55:47;6.07;;;1.30;;
30185;SDS011;31152;49.190;8.122;2022-09-03T02:58:14;1.92;;;1.10;;
30185;SDS011;31152;49.190;8.122;2022-09-03T03:00:41;4.25;;;1.50;;
30185;SDS011;31152;49.190;8.122;2022-09-03T03:03:08;4.35;;;1.30;;
30185;SDS011;31152;49.190;8.122;2022-09-03T03:05:40;4.50;;;1.70;;
30185;SDS011;31152;49.190;8.122;2022-09-03T03:08:10;3.38;;;1.30;;
30185;SDS011;31152;49.190;8.122;2022-09-03T03:10:40;5.63;;;1.80;;
30185;SDS011;31152;49.190;8.122;2022-09-03T03:13:10;4.53;;;1.52;;
30185;SDS011;31152;49.190;8.122;2022-09-03T03:15:37;4.82;;;2.00;;
30185;SDS011;31152;49.190;8.122;2022-09-03T03:18:04;2.42;;;1.33;;
30185;SDS011;31152;49.190;8.122;2022-09-03T03:20:32;2.72;;;1.35;;
30185;SDS011;31152;49.190;8.122;2022-09-03T03:23:03;2.30;;;1.30;;
30185;SDS011;31152;49.190;8.122;2022-09-03T03:25:34;4.72;;;1.30;;
30185;SDS011;31152;49.190;8.122;2022-09-03T03:28:02;3.50;;;1.58;;
30185;SDS011;31152;49.190;8.122;2022-09-03T03:30:30;4.00;;;1.40;;
30185;SDS011;31152;49.190;8.122;2022-09-03T03:33:00;3.28;;;1.08;;
30185;SDS011;31152;49.190;8.122;2022-09-03T03:35:27;1.65;;;1.02;;
30185;SDS011;31152;49.190;8.122;2022-09-03T03:37:57;2.42;;;1.27;;
30185;SDS011;31152;49.190;8.122;2022-09-03T03:40:24;6.70;;;1.45;;
30185;SDS011;31152;49.190;8.122;2022-09-03T03:42:51;6.72;;;1.40;;
30185;SDS011;31152;49.190;8.122;2022-09-03T03:45:18;2.22;;;1.30;;
30185;SDS011;31152;49.190;8.122;2022-09-03T03:47:45;5.07;;;1.42;;
30185;SDS011;31152;49.190;8.122;2022-09-03T03:50:12;2.15;;;1.40;;
30185;SDS011;31152;49.190;8.122;2022-09-03T03:52:38;3.28;;;1.50;;
30185;SDS011;31152;49.190;8.122;2022-09-03T03:55:05;2.35;;;1.20;;
30185;SDS011;31152;49.190;8.122;2022-09-03T03:57:32;2.72;;;1.13;;
30185;SDS011;31152;49.190;8.122;2022-09-03T03:59:59;3.80;;;1.60;;
30185;SDS011;31152;49.190;8.122;2022-09-03T04:02:26;3.65;;;1.35;;
30185;SDS011;31152;49.190;8.122;2022-09-03T04:04:58;5.00;;;1.55;;
30185;SDS011;31152;49.190;8.122;2022-09-03T04:07:25;4.07;;;1.35;;
30185;SDS011;31152;49.190;8.122;2022-09-03T04:09:54;5.60;;;1.42;;
30185;SDS011;31152;49.190;8.122;2022-09-03T04:12:21;2.80;;;1.40;;
30185;SDS011;31152;49.190;8.122;2022-09-03T04:14:51;1.85;;;1.40;;
30185;SDS011;31152;49.190;8.122;2022-09-03T04:17:18;5.85;;;1.63;;
30185;SDS011;31152;49.190;8.122;2022-09-03T04:19:50;5.15;;;1.20;;
30185;SDS011;31152;49.190;8.122;2022-09-03T04:22:17;2.00;;;1.40;;
30185;SDS011;31152;49.190;8.122;2022-09-03T04:24:44;4.47;;;1.45;;
30185;SDS011;31152;49.190;8.122;2022-09-03T04:27:11;2.67;;;1.60;;
30185;SDS011;31152;49.190;8.122;2022-09-03T04:29:38;5.68;;;1.60;;
30185;SDS011;31152;49.190;8.122;2022-09-03T04:32:05;4.10;;;1.30;;
30185;SDS011;31152;49.190;8.122;2022-09-03T04:34:50;2.15;;;1.27;;
30185;SDS011;31152;49.190;8.122;2022-09-03T04:37:17;4.05;;;1.42;;
30185;SDS011;31152;49.190;8.122;2022-09-03T04:39:46;4.05;;;1.30;;
30185;SDS011;31152;49.190;8.122;2022-09-03T04:42:13;3.28;;;1.23;;
30185;SDS011;31152;49.190;8.122;2022-09-03T04:44:40;5.80;;;1.40;;
30185;SDS011;31152;49.190;8.122;2022-09-03T04:47:09;6.13;;;1.60;;
30185;SDS011;31152;49.190;8.122;2022-09-03T04:49:36;3.22;;;1.67;;
30185;SDS011;31152;49.190;8.122;2022-09-03T04:52:03;9.20;;;1.50;;
30185;SDS011;31152;49.190;8.122;2022-09-03T04:54:30;4.43;;;1.55;;
30185;SDS011;31152;49.190;8.122;2022-09-03T04:56:57;2.33;;;1.17;;
30185;SDS011;31152;49.190;8.122;2022-09-03T04:59:23;5.32;;;1.67;;
30185;SDS011;31152;49.190;8.122;2022-09-03T05:01:50;2.95;;;1.40;;
30185;SDS011;31152;49.190;8.122;2022-09-03T05:04:18;3.58;;;1.88;;
30185;SDS011;31152;49.190;8.122;2022-09-03T05:06:44;8.43;;;1.40;;
30185;SDS011;31152;49.190;8.122;2022-09-03T05:09:14;4.03;;;1.45;;
30185;SDS011;31152;49.190;8.122;2022-09-03T05:11:43;3.70;;;1.80;;
30185;SDS011;31152;49.190;8.122;2022-09-03T05:14:10;4.43;;;1.60;;
30185;SDS011;31152;49.190;8.122;2022-09-03T05:16:37;5.65;;;1.60;;
30185;SDS011;31152;49.190;8.122;2022-09-03T05:19:06;2.92;;;1.50;;
30185;SDS011;31152;49.190;8.122;2022-09-03T05:21:34;4.03;;;1.63;;
30185;SDS011;31152;49.190;8.122;2022-09-03T05:24:04;6.10;;;1.50;;
30185;SDS011;31152;49.190;8.122;2022-09-03T05:26:32;2.78;;;1.50;;
30185;SDS011;31152;49.190;8.122;2022-09-03T05:29:03;2.80;;;1.58;;
30185;SDS011;31152;49.190;8.122;2022-09-03T05:31:35;4.15;;;1.77;;
30185;SDS011;31152;49.190;8.122;2022-09-03T05:34:04;9.38;;;2.33;;
30185;SDS011;31152;49.190;8.122;2022-09-03T05:36:35;8.48;;;1.80;;
30185;SDS011;31152;49.190;8.122;2022-09-03T05:39:04;6.43;;;1.88;;
30185;SDS011;31152;49.190;8.122;2022-09-03T05:41:39;7.72;;;1.70;;
30185;SDS011;31152;49.190;8.122;2022-09-03T05:44:06;4.97;;;1.63;;
30185;SDS011;31152;49.190;8.122;2022-09-03T05:46:33;4.13;;;1.70;;
30185;SDS011;31152;49.190;8.122;2022-09-03T05:49:03;4.47;;;2.17;;
30185;SDS011;31152;49.190;8.122;2022-09-03T05:51:32;5.82;;;1.90;;
30185;SDS011;31152;49.190;8.122;2022-09-03T05:54:03;7.38;;;1.70;;
30185;SDS011;31152;49.190;8.122;2022-09-03T05:56:31;5.28;;;2.33;;
30185;SDS011;31152;49.190;8.122;2022-09-03T05:59:02;8.07;;;2.10;;
30185;SDS011;31152;49.190;8.122;2022-09-03T06:01:35;15.35;;;2.03;;
30185;SDS011;31152;49.190;8.122;2022-09-03T06:04:14;8.18;;;2.28;;
30185;SDS011;31152;49.190;8.122;2022-09-03T06:06:46;2.95;;;2.30;;
30185;SDS011;31152;49.190;8.122;2022-09-03T06:09:14;9.48;;;2.00;;
30185;SDS011;31152;49.190;8.122;2022-09-03T06:11:45;6.43;;;2.45;;
30185;SDS011;31152;49.190;8.122;2022-09-03T06:14:15;6.63;;;2.40;;
30185;SDS011;31152;49.190;8.122;2022-09-03T06:16:45;7.85;;;2.70;;
30185;SDS011;31152;49.190;8.122;2022-09-03T06:19:18;4.70;;;2.15;;
30185;SDS011;31152;49.190;8.122;2022-09-03T06:21:47;5.72;;;2.08;;
30185;SDS011;31152;49.190;8.122;2022-09-03T06:24:15;7.07;;;2.10;;
30185;SDS011;31152;49.190;8.122;2022-09-03T06:26:45;3.70;;;1.70;;
30185;SDS011;31152;49.190;8.122;2022-09-03T06:29:12;3.60;;;2.00;;
30185;SDS011;31152;49.190;8.122;2022-09-03T06:31:39;2.67;;;2.20;;
30185;SDS011;31152;49.190;8.122;2022-09-03T06:34:08;5.57;;;2.40;;
30185;SDS011;31152;49.190;8.122;2022-09-03T06:36:38;6.03;;;2.45;;
30185;SDS011;31152;49.190;8.122;2022-09-03T06:39:06;6.82;;;2.80;;
30185;SDS011;31152;49.190;8.122;2022-09-03T06:41:33;3.13;;;2.42;;
30185;SDS011;31152;49.190;8.122;2022-09-03T06:44:01;5.78;;;2.80;;
30185;SDS011;31152;49.190;8.122;2022-09-03T06:46:33;4.60;;;2.42;;
30185;SDS011;31152;49.190;8.122;2022-09-03T06:49:04;4.53;;;2.60;;
30185;SDS011;31152;49.190;8.122;2022-09-03T06:51:31;5.25;;;2.50;;
30185;SDS011;31152;49.190;8.122;2022-09-03T06:54:00;6.30;;;2.58;;
30185;SDS011;31152;49.190;8.122;2022-09-03T06:56:28;5.72;;;2.72;;
30185;SDS011;31152;49.190;8.122;2022-09-03T06:59:06;6.38;;;2.58;;
30185;SDS011;31152;49.190;8.122;2022-09-03T07:01:34;6.93;;;3.28;;
30185;SDS011;31152;49.190;8.122;2022-09-03T07:04:04;5.72;;;2.80;;
30185;SDS011;31152;49.190;8.122;2022-09-03T07:06:33;3.42;;;2.30;;
30185;SDS011;31152;49.190;8.122;2022-09-03T07:09:06;6.55;;;2.50;;
30185;SDS011;31152;49.190;8.122;2022-09-03T07:11:33;8.32;;;3.42;;
30185;SDS011;31152;49.190;8.122;2022-09-03T07:14:02;5.50;;;2.53;;
30185;SDS011;31152;49.190;8.122;2022-09-03T07:16:32;5.63;;;2.38;;
30185;SDS011;31152;49.190;8.122;2022-09-03T07:19:01;5.05;;;2.80;;
30185;SDS011;31152;49.190;8.122;2022-09-03T07:21:31;6.68;;;3.10;;
30185;SDS011;31152;49.190;8.122;2022-09-03T07:23:59;4.20;;;2.70;;
30185;SDS011;31152;49.190;8.122;2022-09-03T07:26:31;4.03;;;2.63;;
30185;SDS011;31152;49.190;8.122;2022-09-03T07:29:03;4.10;;;2.70;;
30185;SDS011;31152;49.190;8.122;2022-09-03T07:31:34;19.52;;;4.80;;
30185;SDS011;31152;49.190;8.122;2022-09-03T07:34:09;14.73;;;3.70;;
30185;SDS011;31152;49.190;8.122;2022-09-03T07:36:39;12.38;;;3.50;;
30185;SDS011;31152;49.190;8.122;2022-09-03T07:39:09;6.15;;;2.63;;
30185;SDS011;31152;49.190;8.122;2022-09-03T07:41:37;8.10;;;3.08;;
30185;SDS011;31152;49.190;8.122;2022-09-03T07:44:07;6.57;;;3.30;;
30185;SDS011;31152;49.190;8.122;2022-09-03T07:46:35;5.93;;;3.40;;
30185;SDS011;31152;49.190;8.122;2022-09-03T07:49:04;7.68;;;3.15;;
30185;SDS011;31152;49.190;8.122;2022-09-03T07:51:34;7.18;;;3.20;;
30185;SDS011;31152;49.190;8.122;2022-09-03T07:54:03;8.43;;;3.60;;
30185;SDS011;31152;49.190;8.122;2022-09-03T07:56:36;5.85;;;3.25;;
30185;SDS011;31152;49.190;8.122;2022-09-03T07:59:07;4.97;;;3.00;;
30185;SDS011;31152;49.190;8.122;2022-09-03T08:01:37;7.25;;;3.00;;
30185;SDS011;31152;49.190;8.122;2022-09-03T08:04:06;6.38;;;3.05;;
30185;SDS011;31152;49.190;8.122;2022-09-03T08:06:35;4.60;;;3.22;;
30185;SDS011;31152;49.190;8.122;2022-09-03T08:09:04;9.05;;;2.95;;
30185;SDS011;31152;49.190;8.122;2022-09-03T08:11:34;4.93;;;3.00;;
30185;SDS011;31152;49.190;8.122;2022-09-03T08:14:07;5.80;;;3.30;;
30185;SDS011;31152;49.190;8.122;2022-09-03T08:16:39;7.97;;;3.88;;
30185;SDS011;31152;49.190;8.122;2022-09-03T08:19:08;7.45;;;3.42;;
30185;SDS011;31152;49.190;8.122;2022-09-03T08:21:36;5.72;;;3.08;;
30185;SDS011;31152;49.190;8.122;2022-09-03T08:24:03;6.75;;;3.47;;
30185;SDS011;31152;49.190;8.122;2022-09-03T08:26:31;6.22;;;3.50;;
30185;SDS011;31152;49.190;8.122;2022-09-03T08:29:00;7.72;;;3.53;;
30185;SDS011;31152;49.190;8.122;2022-09-03T08:31:28;4.40;;;3.00;;
30185;SDS011;31152;49.190;8.122;2022-09-03T08:33:56;6.47;;;3.55;;
30185;SDS011;31152;49.190;8.122;2022-09-03T08:36:25;10.00;;;4.30;;
30185;SDS011;31152;49.190;8.122;2022-09-03T08:38:55;7.05;;;3.42;;
30185;SDS011;31152;49.190;8.122;2022-09-03T08:47:26;5.70;;;3.30;;
30185;SDS011;31152;49.190;8.122;2022-09-03T08:50:04;8.60;;;3.58;;
30185;SDS011;31152;49.190;8.122;2022-09-03T08:52:46;4.57;;;3.53;;
30185;SDS011;31152;49.190;8.122;2022-09-03T08:57:43;6.75;;;4.03;;
30185;SDS011;31152;49.190;8.122;2022-09-03T09:00:23;7.20;;;3.80;;
30185;SDS011;31152;49.190;8.122;2022-09-03T09:05:43;7.65;;;4.45;;
30185;SDS011;31152;49.190;8.122;2022-09-03T09:08:29;7.45;;;4.75;;
30185;SDS011;31152;49.190;8.122;2022-09-03T09:14:02;6.57;;;4.32;;
30185;SDS011;31152;49.190;8.122;2022-09-03T09:22:08;8.27;;;4.20;;
30185;SDS011;31152;49.190;8.122;2022-09-03T09:24:41;10.80;;;4.55;;
30185;SDS011;31152;49.190;8.122;2022-09-03T09:27:12;7.63;;;4.43;;
30185;SDS011;31152;49.190;8.122;2022-09-03T09:29:42;8.90;;;4.50;;
30185;SDS011;31152;49.190;8.122;2022-09-03T09:32:13;8.30;;;4.10;;
30185;SDS011;31152;49.190;8.122;2022-09-03T09:34:43;8.38;;;4.85;;
30185;SDS011;31152;49.190;8.122;2022-09-03T09:37:17;7.50;;;5.20;;
30185;SDS011;31152;49.190;8.122;2022-09-03T09:39:57;8.40;;;4.97;;
30185;SDS011;31152;49.190;8.122;2022-09-03T09:42:25;6.40;;;5.07;;
30185;SDS011;31152;49.190;8.122;2022-09-03T09:44:55;7.95;;;5.00;;
30185;SDS011;31152;49.190;8.122;2022-09-03T09:49:58;14.60;;;5.40;;
30185;SDS011;31152;49.190;8.122;2022-09-03T09:52:26;10.43;;;6.13;;
30185;SDS011;31152;49.190;8.122;2022-09-03T09:55:14;9.98;;;5.30;;
30185;SDS011;31152;49.190;8.122;2022-09-03T09:57:45;8.32;;;5.97;;
30185;SDS011;31152;49.190;8.122;2022-09-03T10:00:14;11.15;;;5.30;;
30185;SDS011;31152;49.190;8.122;2022-09-03T10:02:49;7.78;;;5.60;;
30185;SDS011;31152;49.190;8.122;2022-09-03T10:05:23;7.05;;;5.13;;
30185;SDS011;31152;49.190;8.122;2022-09-03T10:08:06;9.30;;;5.10;;
30185;SDS011;31152;49.190;8.122;2022-09-03T10:10:47;7.63;;;5.55;;
30185;SDS011;31152;49.190;8.122;2022-09-03T10:13:18;9.32;;;6.00;;
30185;SDS011;31152;49.190;8.122;2022-09-03T10:16:00;9.50;;;5.55;;
30185;SDS011;31152;49.190;8.122;2022-09-03T10:21:29;9.43;;;5.47;;
30185;SDS011;31152;49.190;8.122;2022-09-03T10:26:48;7.80;;;4.93;;
30185;SDS011;31152;49.190;8.122;2022-09-03T10:29:17;6.25;;;4.35;;
30185;SDS011;31152;49.190;8.122;2022-09-03T10:31:54;10.55;;;4.35;;
30185;SDS011;31152;49.190;8.122;2022-09-03T10:34:41;6.03;;;4.30;;
30185;SDS011;31152;49.190;8.122;2022-09-03T10:37:42;8.95;;;3.83;;
30185;SDS011;31152;49.190;8.122;2022-09-03T10:45:30;4.40;;;2.78;;
30185;SDS011;31152;49.190;8.122;2022-09-03T10:50:58;4.20;;;2.67;;
30185;SDS011;31152;49.190;8.122;2022-09-03T10:53:38;4.32;;;2.78;;
30185;SDS011;31152;49.190;8.122;2022-09-03T10:56:10;4.15;;;3.17;;
30185;SDS011;31152;49.190;8.122;2022-09-03T11:07:27;6.32;;;3.20;;
30185;SDS011;31152;49.190;8.122;2022-09-03T11:15:35;3.85;;;2.80;;
30185;SDS011;31152;49.190;8.122;2022-09-03T11:18:11;4.50;;;3.55;;
30185;SDS011;31152;49.190;8.122;2022-09-03T11:20:44;7.18;;;3.65;;
30185;SDS011;31152;49.190;8.122;2022-09-03T11:23:18;5.10;;;3.22;;
30185;SDS011;31152;49.190;8.122;2022-09-03T11:25:51;4.00;;;2.78;;
30185;SDS011;31152;49.190;8.122;2022-09-03T11:31:25;4.82;;;3.13;;
30185;SDS011;31152;49.190;8.122;2022-09-03T11:34:11;4.38;;;2.90;;
30185;SDS011;31152;49.190;8.122;2022-09-03T11:37:32;4.43;;;4.00;;
30185;SDS011;31152;49.190;8.122;2022-09-03T11:42:35;5.93;;;3.90;;
30185;SDS011;31152;49.190;8.122;2022-09-03T11:45:32;4.63;;;3.63;;
30185;SDS011;31152;49.190;8.122;2022-09-03T11:48:01;6.78;;;3.78;;
30185;SDS011;31152;49.190;8.122;2022-09-03T11:50:53;4.63;;;4.22;;
30185;SDS011;31152;49.190;8.122;2022-09-03T11:53:23;7.95;;;4.18;;
30185;SDS011;31152;49.190;8.122;2022-09-03T11:58:33;5.85;;;4.32;;
30185;SDS011;31152;49.190;8.122;2022-09-03T12:01:13;4.97;;;4.47;;
30185;SDS011;31152;49.190;8.122;2022-09-03T12:03:59;5.35;;;4.57;;
30185;SDS011;31152;49.190;8.122;2022-09-03T12:17:52;7.05;;;3.90;;
30185;SDS011;31152;49.190;8.122;2022-09-03T12:20:43;6.28;;;4.18;;
30185;SDS011;31152;49.190;8.122;2022-09-03T12:23:24;3.63;;;3.17;;
30185;SDS011;31152;49.190;8.122;2022-09-03T12:26:11;4.07;;;3.60;;
30185;SDS011;31152;49.190;8.122;2022-09-03T12:28:50;4.20;;;3.30;;
30185;SDS011;31152;49.190;8.122;2022-09-03T12:31:29;4.82;;;3.13;;
30185;SDS011;31152;49.190;8.122;2022-09-03T12:34:14;4.43;;;3.10;;
30185;SDS011;31152;49.190;8.122;2022-09-03T12:36:42;4.28;;;3.03;;
30185;SDS011;31152;49.190;8.122;2022-09-03T12:44:31;2.92;;;2.50;;
30185;SDS011;31152;49.190;8.122;2022-09-03T12:50:05;7.05;;;3.10;;
30185;SDS011;31152;49.190;8.122;2022-09-03T12:52:51;5.70;;;3.40;;
30185;SDS011;31152;49.190;8.122;2022-09-03T12:55:31;3.00;;;2.70;;
30185;SDS011;31152;49.190;8.122;2022-09-03T13:06:14;4.55;;;3.00;;
30185;SDS011;31152;49.190;8.122;2022-09-03T13:08:46;5.03;;;3.17;;
30185;SDS011;31152;49.190;8.122;2022-09-03T13:11:18;4.10;;;2.78;;
30185;SDS011;31152;49.190;8.122;2022-09-03T13:13:53;5.07;;;3.05;;
30185;SDS011;31152;49.190;8.122;2022-09-03T13:33:37;3.90;;;3.45;;
30185;SDS011;31152;49.190;8.122;2022-09-03T13:36:13;5.72;;;4.05;;
30185;SDS011;31152;49.190;8.122;2022-09-03T13:38:50;4.70;;;4.20;;
30185;SDS011;31152;49.190;8.122;2022-09-03T13:41:31;5.85;;;3.65;;
30185;SDS011;31152;49.190;8.122;2022-09-03T13:58:25;9.60;;;6.20;;
30185;SDS011;31152;49.190;8.122;2022-09-03T14:03:54;10.95;;;4.93;;
30185;SDS011;31152;49.190;8.122;2022-09-03T14:11:58;7.95;;;4.45;;
30185;SDS011;31152;49.190;8.122;2022-09-03T14:14:51;7.95;;;4.88;;
30185;SDS011;31152;49.190;8.122;2022-09-03T14:17:55;8.50;;;6.05;;
30185;SDS011;31152;49.190;8.122;2022-09-03T14:20:28;12.35;;;5.90;;
30185;SDS011;31152;49.190;8.122;2022-09-03T14:25:31;10.77;;;7.60;;
30185;SDS011;31152;49.190;8.122;2022-09-03T14:28:12;11.00;;;7.68;;
30185;SDS011;31152;49.190;8.122;2022-09-03T14:31:03;8.70;;;6.97;;
30185;SDS011;31152;49.190;8.122;2022-09-03T14:34:09;9.50;;;7.05;;
30185;SDS011;31152;49.190;8.122;2022-09-03T14:37:03;10.55;;;7.38;;
30185;SDS011;31152;49.190;8.122;2022-09-03T14:42:27;10.50;;;7.85;;
30185;SDS011;31152;49.190;8.122;2022-09-03T14:45:18;9.77;;;7.53;;
30185;SDS011;31152;49.190;8.122;2022-09-03T15:04:58;11.43;;;6.95;;
30185;SDS011;31152;49.190;8.122;2022-09-03T15:07:47;10.82;;;7.25;;
30185;SDS011;31152;49.190;8.122;2022-09-03T15:15:23;9.32;;;5.88;;
30185;SDS011;31152;49.190;8.122;2022-09-03T15:18:13;7.88;;;6.10;;
30185;SDS011;31152;49.190;8.122;2022-09-03T15:26:37;10.15;;;5.97;;
30185;SDS011;31152;49.190;8.122;2022-09-03T15:34:42;9.77;;;7.18;;
30185;SDS011;31152;49.190;8.122;2022-09-03T15:37:22;9.35;;;7.15;;
30185;SDS011;31152;49.190;8.122;2022-09-03T15:40:15;8.90;;;7.07;;
30185;SDS011;31152;49.190;8.122;2022-09-03T15:42:45;10.10;;;7.60;;
30185;SDS011;31152;49.190;8.122;2022-09-03T15:53:40;8.52;;;7.40;;
30185;SDS011;31152;49.190;8.122;2022-09-03T16:02:07;7.25;;;6.50;;
30185;SDS011;31152;49.190;8.122;2022-09-03T16:15:44;5.75;;;3.00;;
30185;SDS011;31152;49.190;8.122;2022-09-03T16:20:54;4.32;;;2.88;;
30185;SDS011;31152;49.190;8.122;2022-09-03T16:23:30;2.90;;;2.45;;
30185;SDS011;31152;49.190;8.122;2022-09-03T16:29:10;2.95;;;1.85;;
30185;SDS011;31152;49.190;8.122;2022-09-03T16:42:54;2.38;;;1.65;;
30185;SDS011;31152;49.190;8.122;2022-09-03T16:48:42;1.95;;;1.40;;
30185;SDS011;31152;49.190;8.122;2022-09-03T16:53:52;5.03;;;1.50;;
30185;SDS011;31152;49.190;8.122;2022-09-03T17:05:04;4.00;;;1.30;;
30185;SDS011;31152;49.190;8.122;2022-09-03T17:14:29;1.42;;;1.20;;
30185;SDS011;31152;49.190;8.122;2022-09-03T17:24:37;3.45;;;1.08;;
30185;SDS011;31152;49.190;8.122;2022-09-03T17:32:31;3.13;;;1.20;;
30185;SDS011;31152;49.190;8.122;2022-09-03T17:35:58;2.60;;;1.25;;
30185;SDS011;31152;49.190;8.122;2022-09-03T17:49:16;3.85;;;1.30;;
30185;SDS011;31152;49.190;8.122;2022-09-03T17:52:03;2.92;;;1.50;;
30185;SDS011;31152;49.190;8.122;2022-09-03T17:54:53;3.25;;;1.20;;
30185;SDS011;31152;49.190;8.122;2022-09-03T17:57:31;2.50;;;1.33;;
30185;SDS011;31152;49.190;8.122;2022-09-03T18:00:09;3.63;;;1.40;;
30185;SDS011;31152;49.190;8.122;2022-09-03T18:02:52;1.85;;;1.20;;
30185;SDS011;31152;49.190;8.122;2022-09-03T18:08:25;5.03;;;1.33;;
30185;SDS011;31152;49.190;8.122;2022-09-03T18:11:33;2.08;;;1.65;;
30185;SDS011;31152;49.190;8.122;2022-09-03T18:22:30;2.53;;;1.60;;
30185;SDS011;31152;49.190;8.122;2022-09-03T18:25:24;1.77;;;1.30;;
30185;SDS011;31152;49.190;8.122;2022-09-03T18:28:16;4.13;;;1.73;;
30185;SDS011;31152;49.190;8.122;2022-09-03T18:31:10;5.43;;;1.70;;
30185;SDS011;31152;49.190;8.122;2022-09-03T18:34:01;3.58;;;1.52;;
30185;SDS011;31152;49.190;8.122;2022-09-03T18:36:49;2.17;;;1.48;;
30185;SDS011;31152;49.190;8.122;2022-09-03T18:39:35;2.17;;;1.38;;
30185;SDS011;31152;49.190;8.122;2022-09-03T18:48:48;3.50;;;1.40;;
30185;SDS011;31152;49.190;8.122;2022-09-03T18:51:44;4.63;;;2.08;;
30185;SDS011;31152;49.190;8.122;2022-09-03T19:07:11;2.20;;;1.70;;
30185;SDS011;31152;49.190;8.122;2022-09-03T19:10:19;2.78;;;2.08;;
30185;SDS011;31152;49.190;8.122;2022-09-03T19:21:53;5.13;;;2.50;;
30185;SDS011;31152;49.190;8.122;2022-09-03T19:24:44;10.07;;;2.72;;
30185;SDS011;31152;49.190;8.122;2022-09-03T19:30:28;5.75;;;3.60;;
30185;SDS011;31152;49.190;8.122;2022-09-03T19:42:07;6.40;;;3.40;;
30185;SDS011;31152;49.190;8.122;2022-09-03T19:44:59;7.95;;;4.28;;
30185;SDS011;31152;49.190;8.122;2022-09-03T19:51:07;7.03;;;3.55;;
30185;SDS011;31152;49.190;8.122;2022-09-03T19:53:57;4.35;;;3.35;;
30185;SDS011;31152;49.190;8.122;2022-09-03T19:56:45;4.07;;;3.40;;
30185;SDS011;31152;49.190;8.122;2022-09-03T19:59:38;4.38;;;3.33;;
30185;SDS011;31152;49.190;8.122;2022-09-03T20:02:26;7.22;;;3.28;;
30185;SDS011;31152;49.190;8.122;2022-09-03T20:05:15;7.53;;;3.53;;
30185;SDS011;31152;49.190;8.122;2022-09-03T20:08:03;6.65;;;3.55;;
30185;SDS011;31152;49.190;8.122;2022-09-03T20:10:51;7.32;;;3.53;;
30185;SDS011;31152;49.190;8.122;2022-09-03T20:13:22;5.43;;;3.70;;
30185;SDS011;31152;49.190;8.122;2022-09-03T20:21:18;4.93;;;3.90;;
30185;SDS011;31152;49.190;8.122;2022-09-03T20:38:00;5.68;;;4.95;;
30185;SDS011;31152;49.190;8.122;2022-09-03T20:40:36;6.25;;;4.85;;
30185;SDS011;31152;49.190;8.122;2022-09-03T20:46:28;10.25;;;5.47;;
30185;SDS011;31152;49.190;8.122;2022-09-03T20:51:57;7.45;;;6.07;;
30185;SDS011;31152;49.190;8.122;2022-09-03T20:57:28;7.22;;;5.55;;
30185;SDS011;31152;49.190;8.122;2022-09-03T21:00:18;7.38;;;5.75;;
30185;SDS011;31152;49.190;8.122;2022-09-03T21:08:08;9.07;;;5.85;;
30185;SDS011;31152;49.190;8.122;2022-09-03T21:10:51;8.43;;;5.88;;
30185;SDS011;31152;49.190;8.122;2022-09-03T21:13:33;8.35;;;6.22;;
30185;SDS011;31152;49.190;8.122;2022-09-03T21:22:36;9.52;;;7.32;;
30185;SDS011;31152;49.190;8.122;2022-09-03T21:27:50;12.57;;;8.00;;
30185;SDS011;31152;49.190;8.122;2022-09-03T21:30:22;11.88;;;8.00;;
30185;SDS011;31152;49.190;8.122;2022-09-03T21:32:53;8.85;;;7.75;;
30185;SDS011;31152;49.190;8.122;2022-09-03T21:38:08;10.45;;;8.02;;
30185;SDS011;31152;49.190;8.122;2022-09-03T21:40:44;10.68;;;8.02;;
30185;SDS011;31152;49.190;8.122;2022-09-03T21:43:37;9.73;;;7.40;;
30185;SDS011;31152;49.190;8.122;2022-09-03T21:46:32;16.63;;;7.53;;
30185;SDS011;31152;49.190;8.122;2022-09-03T21:49:06;8.35;;;7.18;;
30185;SDS011;31152;49.190;8.122;2022-09-03T21:51:38;9.63;;;7.43;;
30185;SDS011;31152;49.190;8.122;2022-09-03T21:54:08;8.35;;;7.45;;
30185;SDS011;31152;49.190;8.122;2022-09-03T22:02:29;10.48;;;7.45;;
30185;SDS011;31152;49.190;8.122;2022-09-03T22:10:31;11.10;;;8.00;;
30185;SDS011;31152;49.190;8.122;2022-09-03T22:15:42;15.20;;;7.97;;
30185;SDS011;31152;49.190;8.122;2022-09-03T22:20:58;12.60;;;7.10;;
30185;SDS011;31152;49.190;8.122;2022-09-03T22:26:42;20.38;;;7.32;;
30185;SDS011;31152;49.190;8.122;2022-09-03T22:37:51;18.92;;;7.30;;
30185;SDS011;31152;49.190;8.122;2022-09-03T22:43:12;27.35;;;9.68;;
30185;SDS011;31152;49.190;8.122;2022-09-03T22:46:17;23.40;;;9.93;;
30185;SDS011;31152;49.190;8.122;2022-09-03T22:51:15;15.95;;;9.95;;
30185;SDS011;31152;49.190;8.122;2022-09-03T22:54:00;12.60;;;7.88;;
30185;SDS011;31152;49.190;8.122;2022-09-03T22:56:33;12.55;;;9.13;;
30185;SDS011;31152;49.190;8.122;2022-09-03T22:59:27;13.43;;;8.60;;
30185;SDS011;31152;49.190;8.122;2022-09-03T23:11:00;22.08;;;10.07;;